createdAt,value
2023-01-27T00:01:35.765Z,83.96
2023-01-27T00:04:04.800Z,83.73
2023-01-27T00:06:32.827Z,83.08
2023-01-27T00:09:00.725Z,83.58
2023-01-27T00:11:45.968Z,83.44
2023-01-27T00:14:15.281Z,82.92
2023-01-27T00:16:43.196Z,83.01
2023-01-27T00:19:11.137Z,83.80
2023-01-27T00:21:56.554Z,82.88
2023-01-27T00:24:39.547Z,82.61
2023-01-27T00:27:09.398Z,83.66
2023-01-27T00:29:39.304Z,83.49
2023-01-27T00:32:25.257Z,83.63
2023-01-27T00:34:53.163Z,83.17
2023-01-27T00:37:21.570Z,83.75
2023-01-27T00:39:49.432Z,84.55
2023-01-27T00:42:17.355Z,84.72
2023-01-27T00:45:07.060Z,84.30
2023-01-27T00:47:34.971Z,84.36
2023-01-27T00:50:02.935Z,83.91
2023-01-27T00:52:30.813Z,84.17
2023-01-27T00:54:58.717Z,83.51
2023-01-27T00:57:26.911Z,84.09
2023-01-27T00:59:56.625Z,84.60
2023-01-27T01:02:25.663Z,84.37
2023-01-27T01:04:53.551Z,84.14
2023-01-27T01:07:21.423Z,84.27
2023-01-27T01:09:49.312Z,83.83
2023-01-27T01:12:17.236Z,84.25
2023-01-27T01:14:45.176Z,83.79
2023-01-27T01:17:14.452Z,84.12
2023-01-27T01:19:42.353Z,84.18
2023-01-27T01:22:10.230Z,84.49
2023-01-27T01:24:38.108Z,83.74
2023-01-27T01:27:05.972Z,83.77
2023-01-27T01:29:33.850Z,83.90
2023-01-27T01:32:01.711Z,84.19
2023-01-27T01:34:31.073Z,84.60
2023-01-27T01:36:58.936Z,84.66
2023-01-27T01:39:26.846Z,85.23
2023-01-27T01:41:54.757Z,85.63
2023-01-27T01:44:24.561Z,85.63
2023-01-27T01:46:52.539Z,86.48
2023-01-27T01:49:25.149Z,86.17
2023-01-27T01:51:58.963Z,86.47
2023-01-27T01:54:32.163Z,86.47
2023-01-27T01:57:07.283Z,86.45
2023-01-27T01:59:42.189Z,86.11
2023-01-27T02:02:14.513Z,86.11
2023-01-27T02:04:49.391Z,85.88
2023-01-27T02:07:26.803Z,86.34
2023-01-27T02:09:58.671Z,85.47
2023-01-27T02:12:26.593Z,85.29
2023-01-27T02:14:55.551Z,85.08
2023-01-27T02:17:24.018Z,85.25
2023-01-27T02:20:05.173Z,85.65
2023-01-27T02:22:45.045Z,85.65
2023-01-27T02:25:30.580Z,85.59
2023-01-27T02:27:59.810Z,85.05
2023-01-27T02:30:28.342Z,84.85
2023-01-27T02:32:56.290Z,84.92
2023-01-27T02:35:34.978Z,84.07
2023-01-27T02:38:03.964Z,85.13
2023-01-27T02:40:34.708Z,84.16
2023-01-27T02:43:06.322Z,84.70
2023-01-27T02:45:34.237Z,84.04
2023-01-27T02:48:02.372Z,85.32
2023-01-27T02:50:30.841Z,85.34
2023-01-27T02:52:58.769Z,85.25
2023-01-27T02:55:26.728Z,84.99
2023-01-27T02:57:54.601Z,85.29
2023-01-27T03:00:24.173Z,85.14
2023-01-27T03:02:52.007Z,85.57
2023-01-27T03:05:19.864Z,85.08
2023-01-27T03:07:47.764Z,85.20
2023-01-27T03:10:15.722Z,84.74
2023-01-27T03:12:45.690Z,85.42
2023-01-27T03:15:31.050Z,85.13
2023-01-27T03:18:16.144Z,84.70
2023-01-27T03:20:46.586Z,84.52
2023-01-27T03:23:15.599Z,84.32
2023-01-27T03:25:44.482Z,84.68
2023-01-27T03:28:13.311Z,84.44
2023-01-27T03:30:41.692Z,84.67
2023-01-27T03:33:11.074Z,84.05
2023-01-27T03:35:48.402Z,84.95
2023-01-27T03:38:35.072Z,84.34
2023-01-27T03:41:22.424Z,84.67
2023-01-27T03:44:08.450Z,84.67
2023-01-27T03:46:36.900Z,84.72
2023-01-27T03:49:06.135Z,84.32
2023-01-27T03:51:33.992Z,84.57
2023-01-27T03:54:02.002Z,85.10
2023-01-27T03:56:29.836Z,84.57
2023-01-27T03:58:57.857Z,85.19
2023-01-27T04:01:25.761Z,86.10
2023-01-27T04:04:11.426Z,86.20
2023-01-27T04:06:56.432Z,85.32
2023-01-27T04:09:27.089Z,84.43
2023-01-27T04:11:55.201Z,84.63
2023-01-27T04:14:25.161Z,84.69
2023-01-27T04:16:54.731Z,85.34
2023-01-27T04:19:22.763Z,84.96
2023-01-27T04:21:52.041Z,85.23
2023-01-27T04:24:23.829Z,85.54
2023-01-27T04:26:55.874Z,85.16
2023-01-27T04:29:25.821Z,84.65
2023-01-27T04:31:54.357Z,85.92
2023-01-27T04:34:22.561Z,85.39
2023-01-27T04:36:52.300Z,85.08
2023-01-27T04:39:20.522Z,85.26
2023-01-27T04:41:49.120Z,85.11
2023-01-27T04:44:17.115Z,85.03
2023-01-27T04:46:44.953Z,85.36
2023-01-27T04:49:13.239Z,85.12
2023-01-27T04:51:41.103Z,84.89
2023-01-27T04:54:10.486Z,85.13
2023-01-27T04:56:41.199Z,85.35
2023-01-27T04:59:13.983Z,85.36
2023-01-27T05:01:41.894Z,85.58
2023-01-27T05:04:09.867Z,85.34
2023-01-27T05:06:37.746Z,86.05
2023-01-27T05:09:05.598Z,86.67
2023-01-27T05:11:34.832Z,86.70
2023-01-27T05:14:02.732Z,87.21
2023-01-27T05:16:30.864Z,86.62
2023-01-27T05:18:58.796Z,86.21
2023-01-27T05:21:29.020Z,86.39
2023-01-27T05:23:56.928Z,86.37
2023-01-27T05:26:27.255Z,85.99
2023-01-27T05:28:58.992Z,86.24
2023-01-27T05:31:29.016Z,86.62
2023-01-27T05:33:59.788Z,87.19
2023-01-27T05:36:28.693Z,87.99
2023-01-27T05:38:57.755Z,88.41
2023-01-27T05:41:26.425Z,87.05
2023-01-27T05:43:57.041Z,87.10
2023-01-27T05:46:27.319Z,86.66
2023-01-27T05:48:57.056Z,86.15
2023-01-27T05:51:28.022Z,87.14
2023-01-27T05:53:56.032Z,87.21
2023-01-27T05:56:26.359Z,86.12
2023-01-27T05:58:55.345Z,85.83
2023-01-27T06:01:26.841Z,86.62
2023-01-27T06:03:54.905Z,85.66
2023-01-27T06:06:25.959Z,86.33
2023-01-27T06:08:54.355Z,85.78
2023-01-27T06:11:24.303Z,86.26
2023-01-27T06:13:53.533Z,86.78
2023-01-27T06:16:25.054Z,86.45
2023-01-27T06:18:53.102Z,86.45
2023-01-27T06:21:21.376Z,86.06
2023-01-27T06:23:50.217Z,86.18
2023-01-27T06:26:20.068Z,86.52
2023-01-27T06:28:48.213Z,86.53
2023-01-27T06:31:18.994Z,86.29
2023-01-27T06:33:49.238Z,85.86
2023-01-27T06:36:20.763Z,86.33
2023-01-27T06:38:50.017Z,86.00
2023-01-27T06:41:18.053Z,85.83
2023-01-27T06:43:45.951Z,86.01
2023-01-27T06:46:15.060Z,86.48
2023-01-27T06:48:43.003Z,86.55
2023-01-27T06:51:12.586Z,86.49
2023-01-27T06:53:40.613Z,85.42
2023-01-27T06:56:09.202Z,85.08
2023-01-27T06:58:37.118Z,86.04
2023-01-27T07:01:06.643Z,86.06
2023-01-27T07:03:37.375Z,86.58
2023-01-27T07:06:05.664Z,85.66
2023-01-27T07:08:35.052Z,85.73
2023-01-27T07:11:04.737Z,85.88
2023-01-27T07:13:32.750Z,85.98
2023-01-27T07:16:01.357Z,86.70
2023-01-27T07:18:29.299Z,86.96
2023-01-27T07:20:57.230Z,86.56
2023-01-27T07:23:25.192Z,86.15
2023-01-27T07:25:54.527Z,86.39
2023-01-27T07:28:22.501Z,86.94
2023-01-27T07:30:50.496Z,86.53
2023-01-27T07:33:18.422Z,85.98
2023-01-27T07:35:50.037Z,86.65
2023-01-27T07:38:18.154Z,86.11
2023-01-27T07:40:46.104Z,86.51
2023-01-27T07:43:15.440Z,86.03
2023-01-27T07:45:43.461Z,86.17
2023-01-27T07:48:12.524Z,86.75
2023-01-27T07:50:41.702Z,86.85
2023-01-27T07:53:09.655Z,86.70
2023-01-27T07:55:37.547Z,86.63
2023-01-27T07:58:05.662Z,87.15
2023-01-27T08:00:35.870Z,87.02
2023-01-27T08:03:06.015Z,86.52
2023-01-27T08:05:35.865Z,86.48
2023-01-27T08:08:04.761Z,86.14
2023-01-27T08:10:32.782Z,86.50
2023-01-27T08:13:00.799Z,86.81
2023-01-27T08:15:28.767Z,86.58
2023-01-27T08:17:59.773Z,86.98
2023-01-27T08:20:29.054Z,86.89
2023-01-27T08:22:57.799Z,86.03
2023-01-27T08:25:26.380Z,86.49
2023-01-27T08:27:57.369Z,86.28
2023-01-27T08:30:25.871Z,86.14
2023-01-27T08:32:53.837Z,86.54
2023-01-27T08:35:23.378Z,86.31
2023-01-27T08:37:51.622Z,86.49
2023-01-27T08:40:20.221Z,86.18
2023-01-27T08:42:50.610Z,86.01
2023-01-27T08:45:18.663Z,85.73
2023-01-27T08:47:46.586Z,85.67
2023-01-27T08:50:14.784Z,85.70
2023-01-27T08:52:44.285Z,85.41
2023-01-27T08:55:12.554Z,85.72
2023-01-27T08:57:40.531Z,86.68
2023-01-27T09:00:12.616Z,86.38
2023-01-27T09:02:41.315Z,86.50
2023-01-27T09:05:09.591Z,87.56
2023-01-27T09:07:38.035Z,87.07
2023-01-27T09:10:14.491Z,86.05
2023-01-27T09:12:43.691Z,87.13
2023-01-27T09:15:12.238Z,87.33
2023-01-27T09:17:40.125Z,87.32
2023-01-27T09:20:09.277Z,86.50
2023-01-27T09:22:40.170Z,87.17
2023-01-27T09:25:14.587Z,86.53
2023-01-27T09:27:42.561Z,86.74
2023-01-27T09:30:12.901Z,86.81
2023-01-27T09:32:41.047Z,87.07
2023-01-27T09:35:10.491Z,86.53
2023-01-27T09:37:47.060Z,86.81
2023-01-27T09:40:31.292Z,87.31
2023-01-27T09:43:32.649Z,86.98
2023-01-27T09:46:24.969Z,87.49
2023-01-27T09:49:24.143Z,87.19
2023-01-27T09:52:11.236Z,87.12
2023-01-27T09:54:54.347Z,86.29
2023-01-27T09:57:39.525Z,86.28
2023-01-27T10:00:27.690Z,86.47
2023-01-27T10:03:18.512Z,85.98
2023-01-27T10:06:10.962Z,86.99
2023-01-27T10:09:00.296Z,87.37
2023-01-27T10:11:39.786Z,86.46
2023-01-27T10:14:25.067Z,87.09
2023-01-27T10:17:12.837Z,86.53
2023-01-27T10:19:55.842Z,85.80
2023-01-27T10:22:42.803Z,85.59
2023-01-27T10:25:30.263Z,85.97
2023-01-27T10:28:01.584Z,85.83
2023-01-27T10:30:35.884Z,83.59
2023-01-27T10:33:17.531Z,83.76
2023-01-27T10:35:53.345Z,84.03
2023-01-27T10:38:38.000Z,83.79
2023-01-27T10:41:23.352Z,82.29
2023-01-27T10:44:07.430Z,82.48
2023-01-27T10:46:50.109Z,82.71
2023-01-27T10:49:25.637Z,82.52
2023-01-27T10:51:59.952Z,82.21
2023-01-27T10:54:35.452Z,82.60
2023-01-27T10:57:11.085Z,82.52
2023-01-27T11:00:10.920Z,82.75
2023-01-27T11:02:47.323Z,82.31
2023-01-27T11:05:23.783Z,82.24
2023-01-27T11:08:00.512Z,81.01
2023-01-27T11:10:37.842Z,81.31
2023-01-27T11:13:08.164Z,81.48
2023-01-27T11:15:36.477Z,81.27
2023-01-27T11:18:14.448Z,81.84
2023-01-27T11:20:45.812Z,81.99
2023-01-27T11:23:19.209Z,81.81
2023-01-27T11:25:55.262Z,81.36
2023-01-27T11:28:37.385Z,81.39
2023-01-27T11:31:17.840Z,81.26
2023-01-27T11:34:03.787Z,81.33
2023-01-27T11:36:32.470Z,80.10
2023-01-27T11:39:01.647Z,80.60
2023-01-27T11:41:29.582Z,81.59
2023-01-27T11:43:57.630Z,79.44
2023-01-27T11:46:25.940Z,80.04
2023-01-27T11:48:59.120Z,80.91
2023-01-27T11:51:32.857Z,80.54
2023-01-27T11:54:10.196Z,80.64
2023-01-27T11:56:40.700Z,80.20
2023-01-27T11:59:15.016Z,79.97
2023-01-27T12:01:49.380Z,78.99
2023-01-27T12:04:27.004Z,79.91
2023-01-27T12:07:01.534Z,80.04
2023-01-27T12:09:35.481Z,79.62
2023-01-27T12:12:29.887Z,80.64
2023-01-27T12:14:59.834Z,80.28
2023-01-27T12:17:34.809Z,79.87
2023-01-27T12:20:18.410Z,79.83
2023-01-27T12:22:48.826Z,78.96
2023-01-27T12:25:24.309Z,78.87
2023-01-27T12:27:57.818Z,79.00
2023-01-27T12:30:30.757Z,79.74
2023-01-27T12:33:00.692Z,79.06
2023-01-27T12:35:34.903Z,79.41
2023-01-27T12:38:08.269Z,79.27
2023-01-27T12:40:41.256Z,78.31
2023-01-27T12:43:13.981Z,78.85
2023-01-27T12:45:43.390Z,78.65
2023-01-27T12:48:20.953Z,79.55
2023-01-27T12:51:04.644Z,78.90
2023-01-27T12:53:32.861Z,78.42
2023-01-27T12:56:11.043Z,79.13
2023-01-27T12:58:41.817Z,79.38
2023-01-27T13:01:24.738Z,78.75
2023-01-27T13:03:57.494Z,78.54
2023-01-27T13:06:43.337Z,79.01
2023-01-27T13:09:31.982Z,78.82
2023-01-27T13:12:03.498Z,79.92
2023-01-27T13:14:40.761Z,80.12
2023-01-27T13:17:30.315Z,80.16
2023-01-27T13:20:04.214Z,79.91
2023-01-27T13:22:42.946Z,80.60
2023-01-27T13:25:20.277Z,81.48
2023-01-27T13:27:51.137Z,80.75
2023-01-27T13:30:28.850Z,79.95
2023-01-27T13:33:03.896Z,80.20
2023-01-27T13:35:38.382Z,80.59
2023-01-27T13:38:18.544Z,80.77
2023-01-27T13:40:48.605Z,81.08
2023-01-27T13:43:24.247Z,80.91
2023-01-27T13:45:58.406Z,80.60
2023-01-27T13:48:33.997Z,80.84
2023-01-27T13:51:08.997Z,81.13
2023-01-27T13:53:40.152Z,81.58
2023-01-27T13:56:22.255Z,80.92
2023-01-27T13:59:06.157Z,81.64
2023-01-27T14:01:47.754Z,82.28
2023-01-27T14:04:42.020Z,81.68
2023-01-27T14:07:22.840Z,81.75
2023-01-27T14:10:16.589Z,80.78
2023-01-27T14:13:04.307Z,80.81
2023-01-27T14:15:41.932Z,80.90
2023-01-27T14:18:18.080Z,81.33
2023-01-27T14:21:11.287Z,82.05
2023-01-27T14:23:52.178Z,81.67
2023-01-27T14:26:42.912Z,80.90
2023-01-27T14:29:28.249Z,80.71
2023-01-27T14:32:08.538Z,81.24
2023-01-27T14:34:57.404Z,81.04
2023-01-27T14:37:33.479Z,81.28
2023-01-27T14:40:16.640Z,82.15
2023-01-27T14:43:01.140Z,82.04
2023-01-27T14:45:34.703Z,81.42
2023-01-27T14:48:17.995Z,81.62
2023-01-27T14:51:00.619Z,81.42
2023-01-27T14:53:48.569Z,82.16
2023-01-27T14:56:28.769Z,82.14
2023-01-27T14:59:08.805Z,82.05
2023-01-27T15:01:47.484Z,81.78
2023-01-27T15:04:37.560Z,81.21
2023-01-27T15:07:17.326Z,81.81
2023-01-27T15:10:04.484Z,81.09
2023-01-27T15:12:53.967Z,81.15
2023-01-27T15:16:01.119Z,81.22
2023-01-27T15:18:56.380Z,81.57
2023-01-27T15:21:50.983Z,80.85
2023-01-27T15:24:48.641Z,82.05
2023-01-27T15:27:16.926Z,81.01
2023-01-27T15:29:46.904Z,81.17
2023-01-27T15:32:28.999Z,81.96
2023-01-27T15:35:30.309Z,80.71
2023-01-27T15:38:01.958Z,80.84
2023-01-27T15:40:30.039Z,80.64
2023-01-27T15:43:06.062Z,80.98
2023-01-27T15:45:36.259Z,81.22
2023-01-27T15:48:12.698Z,80.88
2023-01-27T15:50:48.431Z,80.98
2023-01-27T15:53:24.721Z,80.71
2023-01-27T15:55:57.073Z,81.10
2023-01-27T15:58:35.609Z,81.37
2023-01-27T16:01:08.746Z,80.40
2023-01-27T16:03:48.071Z,80.27
2023-01-27T16:06:22.136Z,80.79
2023-01-27T16:08:53.269Z,80.82
2023-01-27T16:11:41.322Z,82.07
2023-01-27T16:14:39.816Z,81.06
2023-01-27T16:17:26.595Z,80.92
2023-01-27T16:20:13.526Z,80.58
2023-01-27T16:22:45.386Z,80.51
2023-01-27T16:25:25.936Z,80.83
2023-01-27T16:28:03.254Z,80.57
2023-01-27T16:30:36.764Z,80.27
2023-01-27T16:33:08.510Z,80.68
2023-01-27T16:35:49.688Z,80.59
2023-01-27T16:38:26.537Z,80.66
2023-01-27T16:40:58.078Z,80.55
2023-01-27T16:43:32.877Z,80.93
2023-01-27T16:46:02.639Z,81.26
2023-01-27T16:48:38.302Z,80.93
2023-01-27T16:51:16.316Z,81.69
2023-01-27T16:53:48.564Z,81.98
2023-01-27T16:56:24.270Z,81.25
2023-01-27T16:58:55.464Z,80.44
2023-01-27T17:01:29.152Z,80.25
2023-01-27T17:04:14.147Z,80.76
2023-01-27T17:06:49.700Z,81.08
2023-01-27T17:09:22.595Z,81.09
2023-01-27T17:11:50.990Z,81.04
2023-01-27T17:14:30.306Z,80.90
2023-01-27T17:17:02.535Z,80.43
2023-01-27T17:19:33.884Z,80.29
2023-01-27T17:22:10.065Z,80.35
2023-01-27T17:24:43.372Z,80.88
2023-01-27T17:27:24.033Z,80.76
2023-01-27T17:30:00.501Z,80.82
2023-01-27T17:32:33.015Z,81.36
2023-01-27T17:35:06.134Z,81.42
2023-01-27T17:37:43.923Z,81.93
2023-01-27T17:40:17.147Z,81.35
2023-01-27T17:42:45.420Z,81.25
2023-01-27T17:45:25.453Z,80.66
2023-01-27T17:47:54.692Z,80.93
2023-01-27T17:50:26.255Z,81.19
2023-01-27T17:52:57.198Z,80.91
2023-01-27T17:55:30.978Z,81.28
2023-01-27T17:58:07.073Z,81.07
2023-01-27T18:00:40.164Z,80.43
2023-01-27T18:03:16.759Z,81.00
2023-01-27T18:05:47.246Z,81.14
2023-01-27T18:08:18.871Z,81.34
2023-01-27T18:10:47.322Z,81.35
2023-01-27T18:13:38.533Z,80.48
2023-01-27T18:16:15.982Z,81.05
2023-01-27T18:18:44.662Z,80.05
2023-01-27T18:21:18.439Z,79.84
2023-01-27T18:23:49.181Z,80.71
2023-01-27T18:26:22.712Z,80.53
2023-01-27T18:28:56.341Z,80.39
2023-01-27T18:31:27.772Z,80.58
2023-01-27T18:34:01.712Z,80.81
2023-01-27T18:36:34.622Z,80.98
2023-01-27T18:39:03.562Z,81.03
2023-01-27T18:41:35.424Z,81.66
2023-01-27T18:44:04.699Z,81.29
2023-01-27T18:46:32.578Z,81.60
2023-01-27T18:49:00.913Z,80.72
2023-01-27T18:51:28.774Z,81.94
2023-01-27T18:53:56.661Z,80.81
2023-01-27T18:56:24.503Z,81.17
2023-01-27T18:58:54.120Z,80.82
2023-01-27T19:01:25.136Z,81.36
2023-01-27T19:03:57.041Z,81.03
2023-01-27T19:06:26.294Z,80.56
2023-01-27T19:08:54.714Z,80.98
2023-01-27T19:11:22.671Z,81.36
2023-01-27T19:13:50.568Z,81.28
2023-01-27T19:16:19.203Z,80.99
2023-01-27T19:18:48.470Z,80.79
2023-01-27T19:21:17.423Z,81.34
2023-01-27T19:23:45.935Z,82.06
2023-01-27T19:26:18.063Z,81.87
2023-01-27T19:28:48.591Z,81.62
2023-01-27T19:31:16.746Z,81.52
2023-01-27T19:33:45.112Z,81.46
2023-01-27T19:36:22.346Z,80.93
2023-01-27T19:38:56.263Z,80.81
2023-01-27T19:41:24.215Z,81.69
2023-01-27T19:43:52.147Z,82.05
2023-01-27T19:46:23.155Z,80.89
2023-01-27T19:48:51.958Z,81.17
2023-01-27T19:51:21.467Z,81.47
2023-01-27T19:53:49.383Z,81.52
2023-01-27T19:56:19.396Z,81.33
2023-01-27T19:58:51.782Z,81.63
2023-01-27T20:01:20.707Z,81.77
2023-01-27T20:03:48.941Z,82.37
2023-01-27T20:06:21.333Z,82.21
2023-01-27T20:08:55.240Z,81.88
2023-01-27T20:11:32.087Z,81.81
2023-01-27T20:14:01.479Z,82.29
2023-01-27T20:16:30.375Z,81.73
2023-01-27T20:19:00.169Z,82.17
2023-01-27T20:21:28.710Z,81.45
2023-01-27T20:23:58.196Z,81.19
2023-01-27T20:26:26.919Z,81.68
2023-01-27T20:28:54.836Z,82.20
2023-01-27T20:31:23.595Z,82.05
2023-01-27T20:33:51.794Z,81.51
2023-01-27T20:36:22.593Z,81.59
2023-01-27T20:38:51.166Z,82.26
2023-01-27T20:41:22.361Z,81.99
2023-01-27T20:43:55.446Z,81.25
2023-01-27T20:46:23.729Z,81.85
2023-01-27T20:48:51.751Z,81.68
2023-01-27T20:51:19.662Z,81.49
2023-01-27T20:53:47.824Z,82.23
2023-01-27T20:56:18.139Z,82.21
2023-01-27T20:58:48.256Z,82.61
2023-01-27T21:01:18.752Z,82.74
2023-01-27T21:03:47.516Z,82.84
2023-01-27T21:06:17.744Z,83.27
2023-01-27T21:08:47.570Z,83.45
2023-01-27T21:11:17.726Z,83.65
2023-01-27T21:13:47.829Z,83.95
2023-01-27T21:16:15.840Z,84.45
2023-01-27T21:18:44.897Z,84.56
2023-01-27T21:21:23.233Z,84.56
2023-01-27T21:23:51.340Z,83.76
2023-01-27T21:26:19.456Z,84.29
2023-01-27T21:28:48.863Z,83.94
2023-01-27T21:31:18.706Z,84.60
2023-01-27T21:33:47.991Z,83.94
2023-01-27T21:36:16.159Z,84.18
2023-01-27T21:38:44.591Z,84.34
2023-01-27T21:41:36.641Z,84.87
2023-01-27T21:44:24.949Z,84.73
2023-01-27T21:46:52.856Z,85.71
2023-01-27T21:49:20.819Z,85.05
2023-01-27T21:51:50.194Z,85.78
2023-01-27T21:54:18.227Z,85.76
2023-01-27T21:56:46.160Z,85.58
2023-01-27T21:59:15.434Z,85.19
2023-01-27T22:01:43.341Z,84.58
2023-01-27T22:04:11.255Z,84.14
2023-01-27T22:06:39.167Z,84.68
2023-01-27T22:09:07.054Z,85.28
2023-01-27T22:11:34.932Z,85.13
2023-01-27T22:14:02.811Z,85.36
2023-01-27T22:16:32.124Z,85.40
2023-01-27T22:19:00.011Z,85.46
2023-01-27T22:21:27.900Z,85.82
2023-01-27T22:23:55.823Z,85.38
2023-01-27T22:26:23.716Z,85.66
2023-01-27T22:28:51.613Z,85.11
2023-01-27T22:31:19.490Z,85.31
2023-01-27T22:33:48.819Z,85.48
2023-01-27T22:36:16.659Z,85.15
2023-01-27T22:38:44.534Z,85.16
2023-01-27T22:41:12.501Z,84.73
2023-01-27T22:43:40.372Z,84.38
2023-01-27T22:46:08.374Z,85.17
2023-01-27T22:48:36.290Z,84.50
2023-01-27T22:51:06.985Z,84.42
2023-01-27T22:53:35.391Z,84.10
2023-01-27T22:56:04.770Z,84.41
2023-01-27T22:58:33.630Z,84.39
2023-01-27T23:01:01.581Z,84.01
2023-01-27T23:03:29.540Z,83.66
2023-01-27T23:05:57.367Z,83.76
2023-01-27T23:08:26.585Z,83.38
2023-01-27T23:10:54.431Z,83.60
2023-01-27T23:13:22.324Z,83.13
2023-01-27T23:15:50.183Z,83.34
2023-01-27T23:18:18.048Z,83.36
2023-01-27T23:20:46.155Z,82.96
2023-01-27T23:23:14.905Z,83.82
2023-01-27T23:25:45.930Z,83.58
2023-01-27T23:28:14.791Z,83.06
2023-01-27T23:30:44.208Z,83.47
2023-01-27T23:33:12.886Z,83.84
2023-01-27T23:35:40.946Z,83.11
2023-01-27T23:38:22.619Z,82.66
2023-01-27T23:41:01.513Z,83.19
2023-01-27T23:43:30.895Z,83.53
2023-01-27T23:45:59.392Z,83.11
2023-01-27T23:48:27.862Z,83.11
2023-01-27T23:50:56.023Z,82.79
2023-01-27T23:53:24.024Z,82.89
2023-01-27T23:56:00.474Z,83.44
2023-01-27T23:58:28.930Z,83.93
